sensor_id;sensor_type;location;lat;lon;timestamp;P1;durP1;ratioP1;P2;durP2;ratioP2
52940;SDS011;62001;53.366;6.636;2023-03-23T00:01:17;4.25;;;2.17;;
52940;SDS011;62001;53.366;6.636;2023-03-23T00:03:46;3.35;;;1.98;;
52940;SDS011;62001;53.366;6.636;2023-03-23T00:06:13;2.97;;;1.70;;
52940;SDS011;62001;53.366;6.636;2023-03-23T00:08:44;4.00;;;1.70;;
52940;SDS011;62001;53.366;6.636;2023-03-23T00:11:15;3.80;;;1.77;;
52940;SDS011;62001;53.366;6.636;2023-03-23T00:13:46;4.18;;;2.03;;
52940;SDS011;62001;53.366;6.636;2023-03-23T00:16:17;3.17;;;1.73;;
52940;SDS011;62001;53.366;6.636;2023-03-23T00:18:56;5.07;;;2.50;;
52940;SDS011;62001;53.366;6.636;2023-03-23T00:21:31;5.25;;;2.85;;
52940;SDS011;62001;53.366;6.636;2023-03-23T00:24:03;4.72;;;3.22;;
52940;SDS011;62001;53.366;6.636;2023-03-23T00:26:34;5.03;;;3.65;;
52940;SDS011;62001;53.366;6.636;2023-03-23T00:29:02;4.88;;;4.03;;
52940;SDS011;62001;53.366;6.636;2023-03-23T00:31:29;7.65;;;5.25;;
52940;SDS011;62001;53.366;6.636;2023-03-23T00:34:00;10.93;;;6.45;;
52940;SDS011;62001;53.366;6.636;2023-03-23T00:36:30;9.50;;;6.63;;
52940;SDS011;62001;53.366;6.636;2023-03-23T00:38:57;10.00;;;7.22;;
52940;SDS011;62001;53.366;6.636;2023-03-23T00:41:24;8.52;;;6.35;;
52940;SDS011;62001;53.366;6.636;2023-03-23T00:43:57;9.68;;;6.47;;
52940;SDS011;62001;53.366;6.636;2023-03-23T00:46:25;7.57;;;6.40;;
52940;SDS011;62001;53.366;6.636;2023-03-23T00:48:53;9.32;;;6.32;;
52940;SDS011;62001;53.366;6.636;2023-03-23T00:51:20;8.77;;;6.22;;
52940;SDS011;62001;53.366;6.636;2023-03-23T00:53:46;9.95;;;6.50;;
52940;SDS011;62001;53.366;6.636;2023-03-23T00:56:12;7.22;;;5.82;;
52940;SDS011;62001;53.366;6.636;2023-03-23T00:58:38;7.80;;;5.95;;
52940;SDS011;62001;53.366;6.636;2023-03-23T01:01:05;7.63;;;5.82;;
52940;SDS011;62001;53.366;6.636;2023-03-23T01:03:31;7.30;;;6.25;;
52940;SDS011;62001;53.366;6.636;2023-03-23T01:06:03;8.57;;;6.75;;
52940;SDS011;62001;53.366;6.636;2023-03-23T01:08:33;9.05;;;7.50;;
52940;SDS011;62001;53.366;6.636;2023-03-23T01:11:02;9.30;;;8.13;;
52940;SDS011;62001;53.366;6.636;2023-03-23T01:13:30;9.30;;;8.40;;
52940;SDS011;62001;53.366;6.636;2023-03-23T01:15:56;10.90;;;9.38;;
52940;SDS011;62001;53.366;6.636;2023-03-23T01:18:21;12.43;;;10.00;;
52940;SDS011;62001;53.366;6.636;2023-03-23T01:20:47;17.50;;;11.57;;
52940;SDS011;62001;53.366;6.636;2023-03-23T01:23:13;19.25;;;13.25;;
52940;SDS011;62001;53.366;6.636;2023-03-23T01:25:39;17.17;;;14.25;;
52940;SDS011;62001;53.366;6.636;2023-03-23T01:28:05;19.30;;;13.02;;
52940;SDS011;62001;53.366;6.636;2023-03-23T01:30:31;17.45;;;12.70;;
52940;SDS011;62001;53.366;6.636;2023-03-23T01:32:57;15.73;;;12.00;;
52940;SDS011;62001;53.366;6.636;2023-03-23T01:35:22;17.63;;;11.40;;
52940;SDS011;62001;53.366;6.636;2023-03-23T01:37:48;14.27;;;10.35;;
52940;SDS011;62001;53.366;6.636;2023-03-23T01:40:15;12.23;;;8.45;;
52940;SDS011;62001;53.366;6.636;2023-03-23T01:42:41;9.00;;;6.97;;
52940;SDS011;62001;53.366;6.636;2023-03-23T01:47:49;8.30;;;5.88;;
52940;SDS011;62001;53.366;6.636;2023-03-23T01:50:26;13.85;;;5.72;;
52940;SDS011;62001;53.366;6.636;2023-03-23T01:52:55;10.30;;;5.60;;
52940;SDS011;62001;53.366;6.636;2023-03-23T01:55:22;8.35;;;5.65;;
52940;SDS011;62001;53.366;6.636;2023-03-23T01:57:53;12.27;;;6.05;;
52940;SDS011;62001;53.366;6.636;2023-03-23T02:00:20;11.88;;;5.82;;
52940;SDS011;62001;53.366;6.636;2023-03-23T02:02:47;8.85;;;5.65;;
52940;SDS011;62001;53.366;6.636;2023-03-23T02:05:19;11.13;;;6.28;;
52940;SDS011;62001;53.366;6.636;2023-03-23T02:07:52;12.00;;;7.03;;
52940;SDS011;62001;53.366;6.636;2023-03-23T02:10:19;11.35;;;7.85;;
52940;SDS011;62001;53.366;6.636;2023-03-23T02:12:44;12.55;;;8.48;;
52940;SDS011;62001;53.366;6.636;2023-03-23T02:15:10;10.88;;;7.82;;
52940;SDS011;62001;53.366;6.636;2023-03-23T02:20:47;14.38;;;9.13;;
52940;SDS011;62001;53.366;6.636;2023-03-23T02:23:28;16.58;;;9.15;;
52940;SDS011;62001;53.366;6.636;2023-03-23T02:40:04;13.95;;;8.45;;
52940;SDS011;62001;53.366;6.636;2023-03-23T02:42:36;13.50;;;8.13;;
52940;SDS011;62001;53.366;6.636;2023-03-23T02:45:07;15.88;;;8.32;;
52940;SDS011;62001;53.366;6.636;2023-03-23T02:47:36;13.27;;;7.95;;
52940;SDS011;62001;53.366;6.636;2023-03-23T02:50:04;14.60;;;7.80;;
52940;SDS011;62001;53.366;6.636;2023-03-23T02:52:32;11.70;;;7.80;;
52940;SDS011;62001;53.366;6.636;2023-03-23T02:55:01;20.33;;;8.18;;
52940;SDS011;62001;53.366;6.636;2023-03-23T02:57:28;13.15;;;8.10;;
52940;SDS011;62001;53.366;6.636;2023-03-23T02:59:55;14.73;;;7.68;;
52940;SDS011;62001;53.366;6.636;2023-03-23T03:02:25;13.02;;;6.93;;
52940;SDS011;62001;53.366;6.636;2023-03-23T03:21:43;10.55;;;6.65;;
52940;SDS011;62001;53.366;6.636;2023-03-23T03:24:12;14.55;;;6.53;;
52940;SDS011;62001;53.366;6.636;2023-03-23T03:26:42;13.85;;;6.78;;
52940;SDS011;62001;53.366;6.636;2023-03-23T03:29:22;9.85;;;5.93;;
52940;SDS011;62001;53.366;6.636;2023-03-23T03:31:51;9.63;;;5.72;;
52940;SDS011;62001;53.366;6.636;2023-03-23T03:34:20;10.50;;;6.55;;
52940;SDS011;62001;53.366;6.636;2023-03-23T03:36:47;11.52;;;6.72;;
52940;SDS011;62001;53.366;6.636;2023-03-23T03:39:15;12.20;;;6.47;;
52940;SDS011;62001;53.366;6.636;2023-03-23T03:41:42;11.75;;;6.75;;
52940;SDS011;62001;53.366;6.636;2023-03-23T03:44:09;11.23;;;6.32;;
52940;SDS011;62001;53.366;6.636;2023-03-23T03:46:35;10.75;;;5.45;;
52940;SDS011;62001;53.366;6.636;2023-03-23T03:49:02;11.38;;;5.72;;
52940;SDS011;62001;53.366;6.636;2023-03-23T03:51:33;11.68;;;5.90;;
52940;SDS011;62001;53.366;6.636;2023-03-23T03:54:00;10.15;;;6.25;;
52940;SDS011;62001;53.366;6.636;2023-03-23T03:56:27;9.13;;;5.75;;
52940;SDS011;62001;53.366;6.636;2023-03-23T03:58:53;9.85;;;6.07;;
52940;SDS011;62001;53.366;6.636;2023-03-23T04:01:20;11.52;;;6.18;;
52940;SDS011;62001;53.366;6.636;2023-03-23T04:03:49;10.18;;;5.75;;
52940;SDS011;62001;53.366;6.636;2023-03-23T04:06:16;12.75;;;5.80;;
52940;SDS011;62001;53.366;6.636;2023-03-23T04:08:43;11.10;;;5.15;;
52940;SDS011;62001;53.366;6.636;2023-03-23T04:11:10;16.25;;;5.72;;
52940;SDS011;62001;53.366;6.636;2023-03-23T04:13:38;7.97;;;5.65;;
52940;SDS011;62001;53.366;6.636;2023-03-23T04:16:04;10.18;;;5.38;;
52940;SDS011;62001;53.366;6.636;2023-03-23T04:18:30;9.73;;;5.43;;
52940;SDS011;62001;53.366;6.636;2023-03-23T04:20:58;10.07;;;5.00;;
52940;SDS011;62001;53.366;6.636;2023-03-23T04:23:26;11.05;;;5.70;;
52940;SDS011;62001;53.366;6.636;2023-03-23T04:25:56;11.10;;;6.07;;
52940;SDS011;62001;53.366;6.636;2023-03-23T04:28:26;11.18;;;5.25;;
52940;SDS011;62001;53.366;6.636;2023-03-23T04:30:53;11.98;;;5.90;;
52940;SDS011;62001;53.366;6.636;2023-03-23T04:33:20;11.85;;;5.10;;
52940;SDS011;62001;53.366;6.636;2023-03-23T04:35:47;12.65;;;5.70;;
52940;SDS011;62001;53.366;6.636;2023-03-23T04:38:14;11.98;;;4.88;;
52940;SDS011;62001;53.366;6.636;2023-03-23T04:40:42;11.52;;;5.05;;
52940;SDS011;62001;53.366;6.636;2023-03-23T04:43:08;11.23;;;4.80;;
52940;SDS011;62001;53.366;6.636;2023-03-23T04:45:37;10.63;;;4.00;;
52940;SDS011;62001;53.366;6.636;2023-03-23T04:48:07;7.68;;;3.53;;
52940;SDS011;62001;53.366;6.636;2023-03-23T04:50:33;10.80;;;3.20;;
52940;SDS011;62001;53.366;6.636;2023-03-23T04:53:00;7.78;;;2.90;;
52940;SDS011;62001;53.366;6.636;2023-03-23T04:55:33;5.82;;;2.63;;
52940;SDS011;62001;53.366;6.636;2023-03-23T04:58:06;8.40;;;2.80;;
52940;SDS011;62001;53.366;6.636;2023-03-23T05:00:33;5.90;;;2.50;;
52940;SDS011;62001;53.366;6.636;2023-03-23T05:03:00;8.50;;;3.10;;
52940;SDS011;62001;53.366;6.636;2023-03-23T05:05:26;9.38;;;3.10;;
52940;SDS011;62001;53.366;6.636;2023-03-23T05:07:54;9.70;;;2.90;;
52940;SDS011;62001;53.366;6.636;2023-03-23T05:10:20;9.35;;;2.88;;
52940;SDS011;62001;53.366;6.636;2023-03-23T05:12:46;10.32;;;3.28;;
52940;SDS011;62001;53.366;6.636;2023-03-23T05:15:12;13.77;;;2.90;;
52940;SDS011;62001;53.366;6.636;2023-03-23T05:17:41;14.30;;;3.25;;
52940;SDS011;62001;53.366;6.636;2023-03-23T05:20:10;14.30;;;3.47;;
52940;SDS011;62001;53.366;6.636;2023-03-23T05:22:38;15.00;;;2.75;;
52940;SDS011;62001;53.366;6.636;2023-03-23T05:25:05;13.85;;;3.38;;
52940;SDS011;62001;53.366;6.636;2023-03-23T05:27:34;13.90;;;3.45;;
52940;SDS011;62001;53.366;6.636;2023-03-23T05:30:00;16.17;;;3.20;;
52940;SDS011;62001;53.366;6.636;2023-03-23T05:32:27;11.68;;;3.80;;
52940;SDS011;62001;53.366;6.636;2023-03-23T05:34:59;14.33;;;3.33;;
52940;SDS011;62001;53.366;6.636;2023-03-23T05:37:26;14.68;;;3.78;;
52940;SDS011;62001;53.366;6.636;2023-03-23T05:39:57;14.27;;;3.47;;
52940;SDS011;62001;53.366;6.636;2023-03-23T05:42:34;13.93;;;3.60;;
52940;SDS011;62001;53.366;6.636;2023-03-23T05:45:01;17.77;;;3.85;;
52940;SDS011;62001;53.366;6.636;2023-03-23T05:47:28;15.45;;;3.85;;
52940;SDS011;62001;53.366;6.636;2023-03-23T05:49:54;18.85;;;3.67;;
52940;SDS011;62001;53.366;6.636;2023-03-23T05:52:20;20.60;;;4.68;;
52940;SDS011;62001;53.366;6.636;2023-03-23T05:54:46;21.42;;;5.28;;
52940;SDS011;62001;53.366;6.636;2023-03-23T05:57:12;21.48;;;5.43;;
52940;SDS011;62001;53.366;6.636;2023-03-23T05:59:37;20.48;;;4.70;;
52940;SDS011;62001;53.366;6.636;2023-03-23T06:02:04;20.27;;;4.70;;
52940;SDS011;62001;53.366;6.636;2023-03-23T06:04:30;22.10;;;5.40;;
52940;SDS011;62001;53.366;6.636;2023-03-23T06:06:59;27.13;;;5.10;;
52940;SDS011;62001;53.366;6.636;2023-03-23T06:09:26;29.88;;;5.10;;
52940;SDS011;62001;53.366;6.636;2023-03-23T06:11:52;22.30;;;4.60;;
52940;SDS011;62001;53.366;6.636;2023-03-23T06:14:18;27.67;;;5.05;;
52940;SDS011;62001;53.366;6.636;2023-03-23T06:16:43;28.45;;;5.43;;
52940;SDS011;62001;53.366;6.636;2023-03-23T06:19:09;29.13;;;5.68;;
52940;SDS011;62001;53.366;6.636;2023-03-23T06:21:36;23.45;;;4.93;;
52940;SDS011;62001;53.366;6.636;2023-03-23T06:24:02;26.13;;;4.93;;
52940;SDS011;62001;53.366;6.636;2023-03-23T06:26:46;27.70;;;5.15;;
52940;SDS011;62001;53.366;6.636;2023-03-23T06:29:12;26.15;;;4.65;;
52940;SDS011;62001;53.366;6.636;2023-03-23T06:31:43;23.45;;;4.53;;
52940;SDS011;62001;53.366;6.636;2023-03-23T06:34:12;23.65;;;4.90;;
52940;SDS011;62001;53.366;6.636;2023-03-23T06:36:38;19.45;;;4.18;;
52940;SDS011;62001;53.366;6.636;2023-03-23T06:39:04;15.75;;;3.47;;
52940;SDS011;62001;53.366;6.636;2023-03-23T06:41:30;20.17;;;3.45;;
52940;SDS011;62001;53.366;6.636;2023-03-23T06:43:57;20.90;;;3.60;;
52940;SDS011;62001;53.366;6.636;2023-03-23T06:46:23;15.35;;;4.10;;
52940;SDS011;62001;53.366;6.636;2023-03-23T06:48:49;19.50;;;4.00;;
52940;SDS011;62001;53.366;6.636;2023-03-23T06:51:15;24.67;;;4.05;;
52940;SDS011;62001;53.366;6.636;2023-03-23T06:53:42;19.45;;;3.65;;
52940;SDS011;62001;53.366;6.636;2023-03-23T06:56:08;17.38;;;3.05;;
52940;SDS011;62001;53.366;6.636;2023-03-23T06:58:34;13.85;;;3.28;;
52940;SDS011;62001;53.366;6.636;2023-03-23T07:01:00;12.07;;;3.40;;
52940;SDS011;62001;53.366;6.636;2023-03-23T07:03:26;17.08;;;3.30;;
52940;SDS011;62001;53.366;6.636;2023-03-23T07:05:53;15.13;;;3.20;;
52940;SDS011;62001;53.366;6.636;2023-03-23T07:08:19;13.05;;;2.90;;
52940;SDS011;62001;53.366;6.636;2023-03-23T07:10:46;14.35;;;3.10;;
52940;SDS011;62001;53.366;6.636;2023-03-23T07:13:12;10.60;;;2.75;;
52940;SDS011;62001;53.366;6.636;2023-03-23T07:15:38;12.45;;;2.80;;
52940;SDS011;62001;53.366;6.636;2023-03-23T07:18:04;8.68;;;2.53;;
52940;SDS011;62001;53.366;6.636;2023-03-23T07:20:30;14.88;;;2.90;;
52940;SDS011;62001;53.366;6.636;2023-03-23T07:22:57;10.93;;;3.00;;
52940;SDS011;62001;53.366;6.636;2023-03-23T07:25:23;12.23;;;3.05;;
52940;SDS011;62001;53.366;6.636;2023-03-23T07:27:48;11.00;;;2.95;;
52940;SDS011;62001;53.366;6.636;2023-03-23T07:30:14;13.50;;;3.00;;
52940;SDS011;62001;53.366;6.636;2023-03-23T07:32:40;12.20;;;3.00;;
52940;SDS011;62001;53.366;6.636;2023-03-23T07:35:07;12.57;;;3.15;;
52940;SDS011;62001;53.366;6.636;2023-03-23T07:37:34;13.88;;;3.22;;
52940;SDS011;62001;53.366;6.636;2023-03-23T07:40:01;14.27;;;3.70;;
52940;SDS011;62001;53.366;6.636;2023-03-23T07:42:40;17.38;;;3.72;;
52940;SDS011;62001;53.366;6.636;2023-03-23T07:45:08;15.45;;;3.72;;
52940;SDS011;62001;53.366;6.636;2023-03-23T07:47:35;16.83;;;3.97;;
52940;SDS011;62001;53.366;6.636;2023-03-23T07:50:01;13.32;;;3.92;;
52940;SDS011;62001;53.366;6.636;2023-03-23T07:52:27;23.52;;;5.00;;
52940;SDS011;62001;53.366;6.636;2023-03-23T07:54:53;25.77;;;5.25;;
52940;SDS011;62001;53.366;6.636;2023-03-23T07:57:19;23.08;;;5.28;;
52940;SDS011;62001;53.366;6.636;2023-03-23T07:59:45;21.30;;;5.47;;
52940;SDS011;62001;53.366;6.636;2023-03-23T08:02:11;27.10;;;5.80;;
52940;SDS011;62001;53.366;6.636;2023-03-23T08:04:37;22.52;;;5.07;;
52940;SDS011;62001;53.366;6.636;2023-03-23T08:07:03;24.05;;;5.85;;
52940;SDS011;62001;53.366;6.636;2023-03-23T08:09:32;29.45;;;5.93;;
52940;SDS011;62001;53.366;6.636;2023-03-23T08:11:58;24.05;;;5.70;;
52940;SDS011;62001;53.366;6.636;2023-03-23T08:14:24;31.65;;;6.53;;
52940;SDS011;62001;53.366;6.636;2023-03-23T08:16:52;30.08;;;6.43;;
52940;SDS011;62001;53.366;6.636;2023-03-23T08:19:20;27.30;;;6.10;;
52940;SDS011;62001;53.366;6.636;2023-03-23T08:21:47;35.17;;;6.75;;
52940;SDS011;62001;53.366;6.636;2023-03-23T08:24:13;29.10;;;6.32;;
52940;SDS011;62001;53.366;6.636;2023-03-23T08:26:40;24.38;;;5.93;;
52940;SDS011;62001;53.366;6.636;2023-03-23T08:29:06;27.08;;;6.00;;
52940;SDS011;62001;53.366;6.636;2023-03-23T08:31:33;35.78;;;7.65;;
52940;SDS011;62001;53.366;6.636;2023-03-23T08:34:01;31.60;;;6.85;;
52940;SDS011;62001;53.366;6.636;2023-03-23T08:36:30;29.50;;;6.85;;
52940;SDS011;62001;53.366;6.636;2023-03-23T08:38:59;30.83;;;6.45;;
52940;SDS011;62001;53.366;6.636;2023-03-23T08:41:26;31.80;;;6.78;;
52940;SDS011;62001;53.366;6.636;2023-03-23T08:43:52;30.75;;;6.43;;
52940;SDS011;62001;53.366;6.636;2023-03-23T08:46:18;30.02;;;6.25;;
52940;SDS011;62001;53.366;6.636;2023-03-23T08:48:45;28.73;;;6.80;;
52940;SDS011;62001;53.366;6.636;2023-03-23T08:51:11;34.53;;;7.10;;
52940;SDS011;62001;53.366;6.636;2023-03-23T08:53:37;31.50;;;6.50;;
52940;SDS011;62001;53.366;6.636;2023-03-23T08:56:05;29.48;;;6.97;;
52940;SDS011;62001;53.366;6.636;2023-03-23T08:58:33;31.45;;;6.20;;
52940;SDS011;62001;53.366;6.636;2023-03-23T09:01:00;31.48;;;7.05;;
52940;SDS011;62001;53.366;6.636;2023-03-23T09:03:26;28.35;;;6.90;;
52940;SDS011;62001;53.366;6.636;2023-03-23T09:05:53;29.17;;;7.07;;
52940;SDS011;62001;53.366;6.636;2023-03-23T09:08:23;30.30;;;7.22;;
52940;SDS011;62001;53.366;6.636;2023-03-23T09:10:48;29.30;;;7.00;;
52940;SDS011;62001;53.366;6.636;2023-03-23T09:13:15;33.65;;;6.32;;
52940;SDS011;62001;53.366;6.636;2023-03-23T09:15:41;32.83;;;6.75;;
52940;SDS011;62001;53.366;6.636;2023-03-23T09:18:07;31.90;;;6.78;;
52940;SDS011;62001;53.366;6.636;2023-03-23T09:20:33;33.47;;;6.70;;
52940;SDS011;62001;53.366;6.636;2023-03-23T09:22:59;29.70;;;6.70;;
52940;SDS011;62001;53.366;6.636;2023-03-23T09:25:25;30.33;;;6.30;;
52940;SDS011;62001;53.366;6.636;2023-03-23T09:27:53;33.65;;;7.00;;
52940;SDS011;62001;53.366;6.636;2023-03-23T09:30:22;28.35;;;6.68;;
52940;SDS011;62001;53.366;6.636;2023-03-23T09:32:52;34.70;;;7.25;;
52940;SDS011;62001;53.366;6.636;2023-03-23T09:35:18;35.53;;;7.05;;
52940;SDS011;62001;53.366;6.636;2023-03-23T09:37:47;25.95;;;6.40;;
52940;SDS011;62001;53.366;6.636;2023-03-23T09:40:20;29.98;;;7.00;;
52940;SDS011;62001;53.366;6.636;2023-03-23T09:45:26;29.45;;;6.57;;
52940;SDS011;62001;53.366;6.636;2023-03-23T09:48:23;29.70;;;6.97;;
52940;SDS011;62001;53.366;6.636;2023-03-23T09:51:41;36.17;;;7.57;;
52940;SDS011;62001;53.366;6.636;2023-03-23T09:54:26;23.98;;;5.75;;
52940;SDS011;62001;53.366;6.636;2023-03-23T09:57:40;32.05;;;6.97;;
52940;SDS011;62001;53.366;6.636;2023-03-23T10:00:08;27.52;;;6.72;;
52940;SDS011;62001;53.366;6.636;2023-03-23T10:05:37;30.77;;;6.50;;
52940;SDS011;62001;53.366;6.636;2023-03-23T10:08:09;32.03;;;6.40;;
52940;SDS011;62001;53.366;6.636;2023-03-23T10:11:02;29.65;;;6.60;;
52940;SDS011;62001;53.366;6.636;2023-03-23T10:16:27;29.25;;;6.60;;
52940;SDS011;62001;53.366;6.636;2023-03-23T10:18:58;25.23;;;6.30;;
52940;SDS011;62001;53.366;6.636;2023-03-23T10:26:33;27.13;;;6.22;;
52940;SDS011;62001;53.366;6.636;2023-03-23T10:32:11;27.05;;;5.70;;
52940;SDS011;62001;53.366;6.636;2023-03-23T10:37:31;23.42;;;5.75;;
52940;SDS011;62001;53.366;6.636;2023-03-23T10:40:03;23.10;;;5.95;;
52940;SDS011;62001;53.366;6.636;2023-03-23T10:42:35;29.80;;;5.75;;
52940;SDS011;62001;53.366;6.636;2023-03-23T10:45:14;24.50;;;5.90;;
52940;SDS011;62001;53.366;6.636;2023-03-23T10:47:57;25.17;;;5.43;;
52940;SDS011;62001;53.366;6.636;2023-03-23T10:50:35;21.40;;;5.03;;
52940;SDS011;62001;53.366;6.636;2023-03-23T10:53:05;19.90;;;5.00;;
52940;SDS011;62001;53.366;6.636;2023-03-23T10:55:42;22.90;;;5.10;;
52940;SDS011;62001;53.366;6.636;2023-03-23T10:58:33;23.20;;;5.63;;
52940;SDS011;62001;53.366;6.636;2023-03-23T11:01:01;23.42;;;5.18;;
52940;SDS011;62001;53.366;6.636;2023-03-23T11:06:09;21.83;;;5.22;;
52940;SDS011;62001;53.366;6.636;2023-03-23T11:08:49;24.20;;;5.70;;
52940;SDS011;62001;53.366;6.636;2023-03-23T11:11:26;30.85;;;5.85;;
52940;SDS011;62001;53.366;6.636;2023-03-23T11:13:59;26.83;;;6.10;;
52940;SDS011;62001;53.366;6.636;2023-03-23T11:16:42;23.30;;;5.43;;
52940;SDS011;62001;53.366;6.636;2023-03-23T11:19:27;35.13;;;6.57;;
52940;SDS011;62001;53.366;6.636;2023-03-23T11:24:35;23.52;;;5.15;;
52940;SDS011;62001;53.366;6.636;2023-03-23T11:27:06;18.63;;;5.10;;
52940;SDS011;62001;53.366;6.636;2023-03-23T11:29:34;22.75;;;4.97;;
52940;SDS011;62001;53.366;6.636;2023-03-23T11:34:35;25.60;;;5.13;;
52940;SDS011;62001;53.366;6.636;2023-03-23T11:37:11;29.80;;;5.35;;
52940;SDS011;62001;53.366;6.636;2023-03-23T11:40:01;26.20;;;5.18;;
52940;SDS011;62001;53.366;6.636;2023-03-23T11:42:46;24.23;;;5.10;;
52940;SDS011;62001;53.366;6.636;2023-03-23T11:51:12;16.08;;;4.07;;
52940;SDS011;62001;53.366;6.636;2023-03-23T11:56:36;19.80;;;4.45;;
52940;SDS011;62001;53.366;6.636;2023-03-23T11:59:08;25.42;;;4.57;;
52940;SDS011;62001;53.366;6.636;2023-03-23T12:07:24;17.73;;;4.20;;
52940;SDS011;62001;53.366;6.636;2023-03-23T12:12:59;16.17;;;4.10;;
52940;SDS011;62001;53.366;6.636;2023-03-23T12:18:38;21.42;;;4.82;;
52940;SDS011;62001;53.366;6.636;2023-03-23T12:21:45;21.08;;;5.05;;
52940;SDS011;62001;53.366;6.636;2023-03-23T12:32:30;19.42;;;4.10;;
52940;SDS011;62001;53.366;6.636;2023-03-23T12:35:20;16.13;;;3.80;;
52940;SDS011;62001;53.366;6.636;2023-03-23T12:41:10;13.27;;;4.28;;
52940;SDS011;62001;53.366;6.636;2023-03-23T12:59:50;18.17;;;4.43;;
52940;SDS011;62001;53.366;6.636;2023-03-23T13:02:32;18.35;;;4.40;;
52940;SDS011;62001;53.366;6.636;2023-03-23T13:05:24;18.48;;;4.05;;
52940;SDS011;62001;53.366;6.636;2023-03-23T13:10:47;18.35;;;4.20;;
52940;SDS011;62001;53.366;6.636;2023-03-23T13:13:19;23.92;;;4.53;;
52940;SDS011;62001;53.366;6.636;2023-03-23T13:20:57;15.90;;;3.85;;
52940;SDS011;62001;53.366;6.636;2023-03-23T13:23:48;17.38;;;4.03;;
52940;SDS011;62001;53.366;6.636;2023-03-23T13:26:19;23.05;;;4.13;;
52940;SDS011;62001;53.366;6.636;2023-03-23T13:31:23;19.02;;;4.53;;
52940;SDS011;62001;53.366;6.636;2023-03-23T13:33:59;22.52;;;4.40;;
52940;SDS011;62001;53.366;6.636;2023-03-23T13:39:00;22.95;;;4.97;;
52940;SDS011;62001;53.366;6.636;2023-03-23T13:41:29;23.83;;;4.40;;
52940;SDS011;62001;53.366;6.636;2023-03-23T13:46:54;19.27;;;4.53;;
52940;SDS011;62001;53.366;6.636;2023-03-23T13:49:31;22.75;;;4.68;;
52940;SDS011;62001;53.366;6.636;2023-03-23T13:52:22;23.02;;;4.93;;
52940;SDS011;62001;53.366;6.636;2023-03-23T14:06:16;18.23;;;4.35;;
52940;SDS011;62001;53.366;6.636;2023-03-23T14:08:50;22.25;;;4.85;;
52940;SDS011;62001;53.366;6.636;2023-03-23T14:11:21;25.63;;;5.20;;
52940;SDS011;62001;53.366;6.636;2023-03-23T14:14:06;21.33;;;5.13;;
52940;SDS011;62001;53.366;6.636;2023-03-23T14:16:40;22.90;;;4.90;;
52940;SDS011;62001;53.366;6.636;2023-03-23T14:21:53;20.67;;;4.85;;
52940;SDS011;62001;53.366;6.636;2023-03-23T14:24:22;26.38;;;5.15;;
52940;SDS011;62001;53.366;6.636;2023-03-23T14:27:16;23.02;;;4.45;;
52940;SDS011;62001;53.366;6.636;2023-03-23T14:29:46;24.98;;;4.90;;
52940;SDS011;62001;53.366;6.636;2023-03-23T14:32:22;18.65;;;4.05;;
52940;SDS011;62001;53.366;6.636;2023-03-23T14:34:51;23.40;;;4.90;;
52940;SDS011;62001;53.366;6.636;2023-03-23T14:37:18;17.92;;;4.28;;
52940;SDS011;62001;53.366;6.636;2023-03-23T14:39:46;21.65;;;4.38;;
52940;SDS011;62001;53.366;6.636;2023-03-23T14:42:15;17.77;;;4.65;;
52940;SDS011;62001;53.366;6.636;2023-03-23T14:44:45;20.65;;;5.13;;
52940;SDS011;62001;53.366;6.636;2023-03-23T14:47:16;16.77;;;4.57;;
52940;SDS011;62001;53.366;6.636;2023-03-23T14:49:46;23.42;;;6.30;;
52940;SDS011;62001;53.366;6.636;2023-03-23T14:52:16;21.23;;;6.28;;
52940;SDS011;62001;53.366;6.636;2023-03-23T14:54:43;19.27;;;5.72;;
52940;SDS011;62001;53.366;6.636;2023-03-23T14:57:12;15.70;;;4.43;;
52940;SDS011;62001;53.366;6.636;2023-03-23T14:59:44;15.88;;;4.18;;
52940;SDS011;62001;53.366;6.636;2023-03-23T15:02:13;15.80;;;4.47;;
52940;SDS011;62001;53.366;6.636;2023-03-23T15:04:50;16.02;;;3.90;;
52940;SDS011;62001;53.366;6.636;2023-03-23T15:07:38;17.65;;;3.65;;
52940;SDS011;62001;53.366;6.636;2023-03-23T15:10:07;20.73;;;4.25;;
52940;SDS011;62001;53.366;6.636;2023-03-23T15:12:36;16.17;;;3.17;;
52940;SDS011;62001;53.366;6.636;2023-03-23T15:15:04;18.33;;;3.95;;
52940;SDS011;62001;53.366;6.636;2023-03-23T15:17:35;19.05;;;3.95;;
52940;SDS011;62001;53.366;6.636;2023-03-23T15:22:54;18.23;;;4.18;;
52940;SDS011;62001;53.366;6.636;2023-03-23T15:27:49;16.23;;;3.60;;
52940;SDS011;62001;53.366;6.636;2023-03-23T15:32:50;17.17;;;3.33;;
52940;SDS011;62001;53.366;6.636;2023-03-23T15:35:20;18.98;;;3.67;;
52940;SDS011;62001;53.366;6.636;2023-03-23T15:37:48;17.83;;;3.58;;
52940;SDS011;62001;53.366;6.636;2023-03-23T15:40:18;16.38;;;3.03;;
52940;SDS011;62001;53.366;6.636;2023-03-23T15:42:46;14.00;;;3.60;;
52940;SDS011;62001;53.366;6.636;2023-03-23T15:52:34;13.68;;;3.15;;
52940;SDS011;62001;53.366;6.636;2023-03-23T15:55:00;11.63;;;3.03;;
52940;SDS011;62001;53.366;6.636;2023-03-23T15:57:26;12.70;;;3.00;;
52940;SDS011;62001;53.366;6.636;2023-03-23T15:59:52;16.15;;;3.80;;
52940;SDS011;62001;53.366;6.636;2023-03-23T16:02:20;15.38;;;3.03;;
52940;SDS011;62001;53.366;6.636;2023-03-23T16:04:49;11.85;;;3.10;;
52940;SDS011;62001;53.366;6.636;2023-03-23T16:07:16;14.82;;;3.17;;
52940;SDS011;62001;53.366;6.636;2023-03-23T16:09:45;12.43;;;3.28;;
52940;SDS011;62001;53.366;6.636;2023-03-23T16:12:11;16.15;;;3.55;;
52940;SDS011;62001;53.366;6.636;2023-03-23T16:14:38;15.23;;;3.38;;
52940;SDS011;62001;53.366;6.636;2023-03-23T16:17:04;19.73;;;3.55;;
52940;SDS011;62001;53.366;6.636;2023-03-23T16:19:30;14.63;;;3.58;;
52940;SDS011;62001;53.366;6.636;2023-03-23T16:21:57;18.33;;;4.05;;
52940;SDS011;62001;53.366;6.636;2023-03-23T16:24:22;19.27;;;4.43;;
52940;SDS011;62001;53.366;6.636;2023-03-23T16:26:48;21.58;;;5.15;;
52940;SDS011;62001;53.366;6.636;2023-03-23T16:29:15;17.15;;;3.63;;
52940;SDS011;62001;53.366;6.636;2023-03-23T16:31:42;19.27;;;3.85;;
52940;SDS011;62001;53.366;6.636;2023-03-23T16:34:08;20.38;;;4.10;;
52940;SDS011;62001;53.366;6.636;2023-03-23T16:36:34;19.80;;;4.30;;
52940;SDS011;62001;53.366;6.636;2023-03-23T16:39:00;18.45;;;4.32;;
52940;SDS011;62001;53.366;6.636;2023-03-23T16:41:26;18.33;;;4.00;;
52940;SDS011;62001;53.366;6.636;2023-03-23T16:43:52;22.20;;;4.47;;
52940;SDS011;62001;53.366;6.636;2023-03-23T16:46:17;22.23;;;5.10;;
52940;SDS011;62001;53.366;6.636;2023-03-23T16:48:43;23.05;;;4.43;;
52940;SDS011;62001;53.366;6.636;2023-03-23T16:51:09;23.23;;;5.35;;
52940;SDS011;62001;53.366;6.636;2023-03-23T16:53:35;25.25;;;5.38;;
52940;SDS011;62001;53.366;6.636;2023-03-23T16:56:02;23.77;;;4.95;;
52940;SDS011;62001;53.366;6.636;2023-03-23T16:58:30;24.90;;;4.70;;
52940;SDS011;62001;53.366;6.636;2023-03-23T17:00:56;23.77;;;4.75;;
52940;SDS011;62001;53.366;6.636;2023-03-23T17:03:22;20.33;;;4.80;;
52940;SDS011;62001;53.366;6.636;2023-03-23T17:05:49;22.10;;;4.68;;
52940;SDS011;62001;53.366;6.636;2023-03-23T17:08:16;28.20;;;4.95;;
52940;SDS011;62001;53.366;6.636;2023-03-23T17:10:43;20.95;;;4.32;;
52940;SDS011;62001;53.366;6.636;2023-03-23T17:13:09;24.65;;;4.40;;
52940;SDS011;62001;53.366;6.636;2023-03-23T17:15:39;22.02;;;4.57;;
52940;SDS011;62001;53.366;6.636;2023-03-23T17:18:06;28.17;;;4.95;;
52940;SDS011;62001;53.366;6.636;2023-03-23T17:20:32;25.15;;;5.05;;
52940;SDS011;62001;53.366;6.636;2023-03-23T17:22:59;23.45;;;5.13;;
52940;SDS011;62001;53.366;6.636;2023-03-23T17:25:26;24.98;;;5.03;;
52940;SDS011;62001;53.366;6.636;2023-03-23T17:27:54;24.98;;;5.60;;